< < Back
Terminal Aerodrome Forecast


Current Version              Previous Versions:   1  2  3  4  5  6  7  8  9  

Terminal Aerodrome Forecast

847
FTUS42 KJAX 261743
TAFGNV
TAF
KGNV 261743Z 2618/2718 19006KT P6SM VCSH FEW030 BKN060
      TEMPO 2619/2622 5SM TSRA BR BKN030CB
     FM270200 22008KT P6SM VCSH SCT030 BKN050
     FM270700 23007KT 6SM BR VCSH BKN020
     FM271200 21006KT 5SM SHRA BR BKN006 OVC015
     FM271600 25010G17KT P6SM BKN035=

Latest METAR

749
SAUS70 KWBC 261900 RRG
MTRGNV
METAR KGNV 261853Z 23008KT 10SM SCT025 BKN032 BKN042 26/19 A2992 RMK AO2
PRESFR SLP131 T02560194


USA.gov is the U.S. government's official web portal to all federal, state and local government web resources and services.